Time;durP1;ratioP1;P1;durP2;ratioP2;P2;SDS_P1;SDS_P2;PMS_P1;PMS_P2;Temp;Humidity;BMP_temperature;BMP_pressure;BME280_temperature;BME280_humidity;BME280_pressure;Samples;Min_cycle;Max_cycle;Signal;HPM_P1;HPM_P2
2021/06/12 00:01:09;;;;;;;11.83;8.50;;;;;;;16.90;68.54;100263.92;124228;1099;115606;-80
2021/06/12 00:03:37;;;;;;;13.38;8.33;;;;;;;16.69;69.01;100256.91;124311;1096;103198;-79
2021/06/12 00:06:06;;;;;;;10.67;8.73;;;;;;;16.67;69.21;100264.20;124748;1096;115907;-82
2021/06/12 00:08:33;;;;;;;9.47;7.63;;;;;;;16.64;69.61;100264.34;125250;1095;103132;-80
2021/06/12 00:11:01;;;;;;;9.20;8.00;;;;;;;16.65;69.34;100259.86;125173;1096;103184;-80
2021/06/12 00:13:33;;;;;;;10.20;8.57;;;;;;;16.62;69.11;100257.31;124891;1096;115889;-81
2021/06/12 00:16:01;;;;;;;9.03;7.58;;;;;;;16.58;69.28;100253.95;125198;1096;103004;-81
2021/06/12 00:18:29;;;;;;;10.35;8.28;;;;;;;16.57;69.35;100254.00;125040;1095;116223;-79
2021/06/12 00:20:58;;;;;;;10.53;8.50;;;;;;;16.55;69.49;100257.66;124593;1096;103300;-78
2021/06/12 00:23:26;;;;;;;9.73;8.73;;;;;;;16.50;69.62;100262.41;124184;1096;103195;-79
2021/06/12 00:26:08;;;;;;;10.18;8.33;;;;;;;16.51;69.51;100250.72;124250;1095;114323;-80
2021/06/12 00:28:37;;;;;;;8.25;7.40;;;;;;;16.45;69.71;100248.34;125526;1095;104222;-82
2021/06/12 00:31:05;;;;;;;10.23;7.77;;;;;;;16.35;69.93;100247.98;124779;1096;114886;-79
2021/06/12 00:33:33;;;;;;;8.80;7.90;;;;;;;16.34;69.99;100245.34;124331;1094;103025;-79
2021/06/12 00:36:00;;;;;;;9.87;8.87;;;;;;;16.36;69.98;100243.45;124528;1093;115714;-79
2021/06/12 00:38:27;;;;;;;9.25;8.13;;;;;;;16.26;70.02;100248.46;124972;1093;103003;-80
2021/06/12 00:40:55;;;;;;;10.60;7.63;;;;;;;16.25;70.47;100233.28;124935;1093;103425;-78
2021/06/12 00:43:22;;;;;;;8.90;7.80;;;;;;;16.31;70.16;100238.31;125067;1092;115931;-79
2021/06/12 00:45:50;;;;;;;10.03;8.87;;;;;;;16.37;69.70;100227.25;125326;1092;103895;-79
2021/06/12 00:48:32;;;;;;;10.00;8.78;;;;;;;16.42;69.85;100224.33;124873;1095;117066;-79
2021/06/12 00:51:00;;;;;;;9.38;8.48;;;;;;;16.38;69.62;100228.98;124789;1095;103719;-81
2021/06/12 00:53:46;;;;;;;13.20;7.67;;;;;;;16.34;69.65;100226.53;125040;1093;103207;-79
2021/06/12 00:56:19;;;;;;;11.85;8.88;;;;;;;16.34;69.73;100221.16;127767;1093;115973;-79
2021/06/12 00:58:48;;;;;;;12.10;8.47;;;;;;;16.33;69.69;100217.61;125385;1093;103001;-79
2021/06/12 01:01:20;;;;;;;10.83;9.13;;;;;;;16.29;69.85;100218.73;125089;1093;115976;-81
2021/06/12 01:03:49;;;;;;;9.98;8.15;;;;;;;16.23;69.87;100212.81;125277;1093;103080;-78
2021/06/12 01:06:21;;;;;;;8.15;7.35;;;;;;;16.24;70.02;100217.24;125629;1092;116062;-80
2021/06/12 01:08:48;;;;;;;10.70;8.50;;;;;;;16.27;69.97;100209.86;125516;1093;102940;-80
2021/06/12 01:11:16;;;;;;;12.03;8.68;;;;;;;16.24;69.85;100212.72;125158;1093;103000;-80
2021/06/12 01:14:14;;;;;;;15.95;9.10;;;;;;;16.29;69.77;100215.19;125073;1093;115924;-79
2021/06/12 01:16:59;;;;;;;9.05;8.23;;;;;;;16.36;69.33;100219.27;125049;1093;103036;-79
2021/06/12 01:19:57;;;;;;;10.07;8.70;;;;;;;16.33;69.68;100216.75;124933;1093;114777;-81
2021/06/12 01:22:28;;;;;;;8.23;7.38;;;;;;;16.26;69.71;100218.02;125222;1092;103534;-79
2021/06/12 01:25:18;;;;;;;10.87;8.57;;;;;;;16.19;69.56;100210.30;125043;1092;115932;-83
2021/06/12 01:27:57;;;;;;;9.37;8.37;;;;;;;16.22;69.71;100211.95;125426;1093;103006;-81
2021/06/12 01:30:27;;;;;;;10.03;7.98;;;;;;;16.18;70.16;100203.17;125465;1092;116362;-80
2021/06/12 01:32:59;;;;;;;10.10;9.03;;;;;;;16.21;69.66;100210.20;125400;1093;102982;-83
2021/06/12 01:35:36;;;;;;;9.93;8.08;;;;;;;16.26;69.16;100208.16;125670;1092;102901;-83
2021/06/12 01:38:06;;;;;;;9.73;8.10;;;;;;;16.30;68.50;100217.78;125404;1093;114842;-81
2021/06/12 01:40:40;;;;;;;10.73;8.43;;;;;;;16.31;69.13;100207.89;125205;1092;103065;-79
2021/06/12 01:43:09;;;;;;;10.43;8.03;;;;;;;16.25;69.18;100213.58;124961;1093;115845;-80
2021/06/12 01:45:40;;;;;;;9.38;7.03;;;;;;;16.21;69.02;100219.13;125717;1093;103018;-80
2021/06/12 01:48:09;;;;;;;15.15;9.75;;;;;;;16.20;69.02;100220.07;125270;1093;115951;-81
2021/06/12 01:50:38;;;;;;;9.60;8.63;;;;;;;16.19;69.25;100214.78;125641;1092;103078;-80
2021/06/12 01:53:07;;;;;;;13.60;9.73;;;;;;;16.12;69.32;100219.61;125352;1093;103086;-79
2021/06/12 01:55:35;;;;;;;10.30;8.77;;;;;;;15.98;69.57;100214.08;124990;1093;115997;-80
2021/06/12 01:58:06;;;;;;;9.03;7.45;;;;;;;15.90;69.95;100208.25;125401;1092;103386;-80
2021/06/12 02:00:35;;;;;;;10.05;8.68;;;;;;;15.85;69.95;100211.19;125474;1093;116333;-81
2021/06/12 02:03:03;;;;;;;9.43;8.53;;;;;;;15.82;70.26;100214.89;125520;1093;102980;-80
2021/06/12 02:05:33;;;;;;;10.30;8.83;;;;;;;15.82;70.62;100222.06;125176;1093;103044;-79
2021/06/12 02:08:02;;;;;;;12.95;9.45;;;;;;;15.76;70.67;100217.84;124670;1093;116458;-79
2021/06/12 02:10:31;;;;;;;11.93;10.73;;;;;;;15.75;70.71;100216.09;124791;1093;103344;-79
2021/06/12 02:12:59;;;;;;;10.58;9.40;;;;;;;15.70;70.93;100216.34;124977;1093;116012;-79
2021/06/12 02:15:29;;;;;;;11.45;10.30;;;;;;;15.68;70.79;100220.06;125152;1093;102962;-80
2021/06/12 02:18:02;;;;;;;11.20;9.60;;;;;;;15.63;71.00;100217.59;125007;1093;116283;-79
2021/06/12 02:20:34;;;;;;;10.03;8.50;;;;;;;15.60;71.40;100214.21;124833;1093;102998;-78
2021/06/12 02:23:04;;;;;;;11.47;9.33;;;;;;;15.60;71.33;100209.70;124879;1093;103437;-78
2021/06/12 02:25:32;;;;;;;10.55;9.48;;;;;;;15.64;71.08;100215.80;124903;1093;115663;-79
2021/06/12 02:28:06;;;;;;;12.90;9.47;;;;;;;15.64;71.35;100215.80;124563;1092;103949;-81
2021/06/12 02:30:39;;;;;;;10.15;8.55;;;;;;;15.64;71.15;100213.11;124796;1093;115968;-78
2021/06/12 02:33:09;;;;;;;12.45;9.00;;;;;;;15.64;71.25;100219.33;124786;1092;103787;-78
2021/06/12 02:35:37;;;;;;;9.10;8.20;;;;;;;15.64;71.19;100219.33;125143;1093;103674;-80
2021/06/12 02:38:04;;;;;;;12.43;10.27;;;;;;;15.64;71.55;100218.48;124731;1092;115539;-79
2021/06/12 02:40:32;;;;;;;9.23;8.18;;;;;;;15.61;71.36;100213.23;125062;1093;102902;-80
2021/06/12 02:42:59;;;;;;;11.33;7.50;;;;;;;15.62;71.64;100209.62;125354;1092;114587;-80
2021/06/12 02:45:27;;;;;;;9.53;8.53;;;;;;;15.64;71.39;100207.73;125607;1093;102983;-80
2021/06/12 02:48:03;;;;;;;9.75;8.85;;;;;;;15.64;71.60;100205.05;125147;1093;115875;-80
2021/06/12 02:50:36;;;;;;;15.10;8.40;;;;;;;15.64;71.71;100207.73;125302;1093;103007;-79
2021/06/12 02:53:06;;;;;;;9.68;8.58;;;;;;;15.69;71.64;100200.33;125139;1093;103013;-79
2021/06/12 02:55:37;;;;;;;10.37;8.03;;;;;;;15.74;71.59;100202.76;125288;1093;116155;-79
2021/06/12 02:58:06;;;;;;;10.73;8.53;;;;;;;15.78;71.75;100197.17;125131;1093;102983;-79
2021/06/12 03:00:35;;;;;;;9.00;8.10;;;;;;;15.79;71.82;100196.20;124934;1093;116300;-81
2021/06/12 03:03:05;;;;;;;13.00;8.85;;;;;;;15.85;71.90;100193.23;124970;1093;103159;-80
2021/06/12 03:05:36;;;;;;;10.60;8.70;;;;;;;15.93;71.16;100191.96;125275;1092;103332;-79
2021/06/12 03:08:04;;;;;;;10.33;8.95;;;;;;;15.92;71.28;100195.62;124744;1093;116195;-79
2021/06/12 03:10:34;;;;;;;12.25;9.00;;;;;;;15.90;71.57;100195.70;124939;1092;103716;-78
2021/06/12 03:13:04;;;;;;;9.95;8.83;;;;;;;15.93;71.46;100198.22;125058;1093;116137;-79
2021/06/12 03:15:34;;;;;;;10.38;8.33;;;;;;;16.01;71.41;100185.25;125030;1093;103851;-80
2021/06/12 03:18:03;;;;;;;10.30;8.17;;;;;;;16.11;71.08;100191.00;125001;1093;115552;-80
2021/06/12 03:20:31;;;;;;;11.57;9.87;;;;;;;16.13;71.25;100196.32;125500;1093;103090;-81
2021/06/12 03:23:02;;;;;;;13.13;8.83;;;;;;;16.15;71.10;100192.57;125033;1093;103007;-79
2021/06/12 03:25:30;;;;;;;9.23;8.20;;;;;;;16.18;70.48;100186.17;124613;1093;115055;-79
2021/06/12 03:27:59;;;;;;;8.57;7.60;;;;;;;16.24;70.15;100191.23;124780;1093;103121;-80
2021/06/12 03:30:40;;;;;;;9.00;8.10;;;;;;;16.32;69.92;100193.51;124560;1093;115701;-79
2021/06/12 03:33:09;;;;;;;10.53;8.67;;;;;;;16.35;69.73;100187.96;124315;1093;103328;-81
2021/06/12 03:35:37;;;;;;;9.25;7.40;;;;;;;16.41;69.44;100184.06;124595;1093;103060;-79
2021/06/12 03:38:05;;;;;;;9.90;8.35;;;;;;;16.53;69.36;100189.66;124913;1092;115548;-79
2021/06/12 03:40:32;;;;;;;9.93;9.03;;;;;;;16.55;69.25;100181.50;124948;1093;103137;-79
2021/06/12 03:43:01;;;;;;;10.83;9.67;;;;;;;16.61;68.89;100186.55;125162;1092;114589;-79
2021/06/12 03:45:30;;;;;;;9.33;8.33;;;;;;;16.67;69.38;100186.22;125064;1093;103020;-78
2021/06/12 03:48:01;;;;;;;11.93;9.80;;;;;;;16.71;68.86;100176.14;125090;1093;115025;-79
2021/06/12 03:50:30;;;;;;;10.05;8.80;;;;;;;16.81;68.45;100185.44;125060;1093;103255;-79
2021/06/12 03:52:57;;;;;;;9.10;7.53;;;;;;;16.87;68.36;100178.84;124855;1092;103077;-79
2021/06/12 03:55:25;;;;;;;11.97;8.63;;;;;;;16.90;69.35;100184.11;124803;1093;114764;-79
2021/06/12 03:57:53;;;;;;;10.47;9.30;;;;;;;16.94;68.82;100174.91;124844;1093;103136;-81
2021/06/12 04:00:34;;;;;;;9.43;8.58;;;;;;;16.98;68.63;100176.47;125686;1092;114903;-82
2021/06/12 04:03:03;;;;;;;11.40;9.50;;;;;;;17.00;68.69;100181.75;125086;1093;102997;-79
2021/06/12 04:05:30;;;;;;;12.63;9.35;;;;;;;17.03;68.38;100171.70;125129;1093;103154;-79
2021/06/12 04:07:58;;;;;;;10.80;8.93;;;;;;;17.14;68.31;100175.57;124794;1093;115997;-79
2021/06/12 04:10:25;;;;;;;11.47;9.20;;;;;;;17.28;68.41;100178.34;124780;1093;103585;-79
2021/06/12 04:12:52;;;;;;;10.35;8.50;;;;;;;17.38;67.96;100184.08;124621;1093;114614;-77
2021/06/12 04:15:20;;;;;;;10.25;8.83;;;;;;;17.44;68.05;100181.01;124444;1092;103105;-78
2021/06/12 04:17:58;;;;;;;12.93;10.23;;;;;;;17.49;67.64;100180.75;124664;1093;102919;-78
2021/06/12 04:20:26;;;;;;;13.70;10.37;;;;;;;17.52;67.27;100184.11;124774;1093;114893;-79
2021/06/12 04:22:54;;;;;;;10.87;9.73;;;;;;;17.59;67.81;100183.77;124576;1093;103098;-78
2021/06/12 04:25:22;;;;;;;11.33;10.13;;;;;;;17.58;67.70;100180.22;124528;1093;114577;-80
2021/06/12 04:27:49;;;;;;;10.60;9.50;;;;;;;17.61;67.23;100187.25;124731;1092;103460;-81
2021/06/12 04:30:19;;;;;;;11.17;10.07;;;;;;;17.65;67.26;100178.88;124799;1093;115387;-80
2021/06/12 04:32:57;;;;;;;12.03;10.18;;;;;;;17.65;67.78;100176.19;125157;1092;103058;-80
2021/06/12 04:35:24;;;;;;;12.33;9.73;;;;;;;17.72;67.45;100177.54;125314;1093;102983;-79
2021/06/12 04:37:53;;;;;;;13.20;10.93;;;;;;;17.75;67.84;100175.64;125196;1092;113754;-79
2021/06/12 04:40:20;;;;;;;12.10;10.00;;;;;;;17.75;67.91;100179.19;125401;1092;102985;-78
2021/06/12 04:42:48;;;;;;;15.10;10.95;;;;;;;17.85;67.33;100180.38;124997;1092;115599;-79
2021/06/12 04:45:15;;;;;;;10.60;9.47;;;;;;;17.94;67.54;100173.61;124832;1093;103077;-78
2021/06/12 04:47:43;;;;;;;12.33;10.23;;;;;;;18.03;67.10;100173.05;124891;1093;103020;-79
2021/06/12 04:50:11;;;;;;;14.63;10.53;;;;;;;18.14;66.60;100174.20;125670;1093;114833;-79
2021/06/12 04:52:38;;;;;;;12.53;10.70;;;;;;;18.15;66.71;100171.43;125438;1093;103253;-80
2021/06/12 04:55:08;;;;;;;16.40;10.23;;;;;;;18.19;66.44;100175.66;125093;1093;114980;-79
2021/06/12 04:57:49;;;;;;;12.17;10.97;;;;;;;18.31;66.37;100167.77;125053;1092;103373;-79
2021/06/12 05:00:30;;;;;;;10.65;9.65;;;;;;;18.42;65.97;100177.88;125349;1093;115348;-79
2021/06/12 05:02:57;;;;;;;12.40;10.83;;;;;;;18.52;65.89;100177.20;124946;1093;103077;-80
2021/06/12 05:05:26;;;;;;;14.30;10.60;;;;;;;18.54;65.61;100169.89;124987;1092;102998;-81
2021/06/12 05:07:53;;;;;;;10.87;9.30;;;;;;;18.63;65.93;100175.66;124978;1093;114740;-80
2021/06/12 05:10:23;;;;;;;10.70;9.70;;;;;;;18.73;65.27;100171.41;125050;1092;103130;-79
2021/06/12 05:12:51;;;;;;;12.53;10.08;;;;;;;18.80;65.00;100178.13;124319;1092;115344;-80
2021/06/12 05:15:32;;;;;;;12.63;9.80;;;;;;;18.90;64.60;100169.48;124529;1095;103108;-79
2021/06/12 05:18:03;;;;;;;11.30;9.67;;;;;;;18.95;64.29;100162.81;124625;1095;103150;-80
2021/06/12 05:20:32;;;;;;;12.83;10.08;;;;;;;19.04;64.51;100154.11;125378;1092;115600;-80
2021/06/12 05:23:00;;;;;;;10.45;8.95;;;;;;;19.14;64.45;100150.80;125149;1093;103188;-79
2021/06/12 05:25:28;;;;;;;13.55;10.05;;;;;;;19.25;63.89;100160.92;125084;1092;116117;-82
2021/06/12 05:27:56;;;;;;;11.43;9.77;;;;;;;19.32;63.76;100154.98;125188;1093;103072;-80
2021/06/12 05:30:24;;;;;;;13.25;9.15;;;;;;;19.42;63.41;100157.06;125481;1092;116536;-82
2021/06/12 05:32:52;;;;;;;11.03;8.80;;;;;;;19.51;63.68;100156.45;125550;1093;103058;-80
2021/06/12 05:35:33;;;;;;;12.93;8.87;;;;;;;19.64;63.84;100148.38;125560;1093;102949;-79
2021/06/12 05:38:16;;;;;;;15.07;9.37;;;;;;;19.77;63.47;100143.86;125127;1096;114701;-80
2021/06/12 05:40:44;;;;;;;9.55;8.65;;;;;;;19.88;63.02;100153.96;124834;1097;103243;-80
2021/06/12 05:43:13;;;;;;;13.80;9.23;;;;;;;19.96;63.00;100153.44;125189;1093;116291;-80
2021/06/12 05:45:41;;;;;;;10.50;8.13;;;;;;;20.03;62.15;100152.91;125241;1093;103745;-81
2021/06/12 05:48:10;;;;;;;10.80;8.77;;;;;;;20.08;61.67;100149.86;124996;1093;114783;-79
2021/06/12 05:50:37;;;;;;;10.23;7.77;;;;;;;20.16;62.08;100155.59;125172;1093;103085;-80
2021/06/12 05:53:05;;;;;;;8.10;7.40;;;;;;;20.24;62.20;100148.80;125296;1093;103004;-81
2021/06/12 05:55:33;;;;;;;9.47;7.87;;;;;;;20.34;61.24;100141.73;125417;1091;115221;-80
2021/06/12 05:58:01;;;;;;;10.50;8.97;;;;;;;20.41;61.14;100151.16;125393;1093;103851;-78
2021/06/12 06:00:28;;;;;;;9.67;7.93;;;;;;;20.48;61.12;100138.05;124916;1092;116161;-79
2021/06/12 06:02:56;;;;;;;9.88;8.93;;;;;;;20.55;61.25;100142.92;125090;1093;102930;-87
2021/06/12 06:05:25;;;;;;;9.10;8.20;;;;;;;20.61;60.63;100138.89;125056;1093;103668;-81
2021/06/12 06:07:52;;;;;;;9.08;7.78;;;;;;;20.71;60.77;100136.41;125135;1093;114728;-80
2021/06/12 06:10:20;;;;;;;11.40;8.77;;;;;;;20.78;60.96;100131.41;125367;1093;103183;-80
2021/06/12 06:12:48;;;;;;;10.17;8.03;;;;;;;20.83;60.06;100137.35;124905;1092;114528;-78
2021/06/12 06:15:17;;;;;;;10.13;9.08;;;;;;;20.92;59.69;100135.81;124711;1092;103165;-79
2021/06/12 06:17:45;;;;;;;13.27;8.60;;;;;;;20.97;58.98;100129.08;125115;1092;103154;-80
2021/06/12 06:20:14;;;;;;;10.20;8.13;;;;;;;21.01;58.89;100129.72;124912;1093;115838;-78
2021/06/12 06:22:41;;;;;;;10.33;7.77;;;;;;;21.04;59.87;100121.36;124972;1093;103224;-80
2021/06/12 06:25:14;;;;;;;7.80;6.97;;;;;;;21.13;59.21;100119.82;124902;1093;114941;-80
2021/06/12 06:27:42;;;;;;;8.67;7.67;;;;;;;21.23;58.33;100114.56;124714;1092;103020;-81
2021/06/12 06:30:14;;;;;;;8.73;7.63;;;;;;;21.25;58.71;100124.30;124296;1093;116215;-78
2021/06/12 06:32:42;;;;;;;9.00;8.07;;;;;;;21.41;59.01;100123.16;124552;1093;103009;-77
2021/06/12 06:35:14;;;;;;;8.60;7.80;;;;;;;21.56;57.73;100118.42;124676;1093;103032;-79
2021/06/12 06:37:42;;;;;;;9.98;7.55;;;;;;;21.70;57.13;100126.36;124686;1093;116145;-79
2021/06/12 06:40:10;;;;;;;16.18;8.00;;;;;;;21.70;57.06;100127.21;124794;1092;103089;-79
2021/06/12 06:42:37;;;;;;;9.07;6.40;;;;;;;21.67;57.43;100118.45;124740;1093;115852;-78
2021/06/12 06:45:06;;;;;;;8.30;7.47;;;;;;;21.65;57.14;100134.83;124975;1093;103008;-80
2021/06/12 06:47:33;;;;;;;9.83;7.10;;;;;;;21.64;56.89;100124.11;124978;1092;102988;-78
2021/06/12 06:50:01;;;;;;;10.10;7.57;;;;;;;21.69;56.88;100130.89;124651;1092;115129;-78
2021/06/12 06:52:28;;;;;;;8.90;7.63;;;;;;;21.75;56.67;100128.70;124853;1093;103247;-79
2021/06/12 06:54:56;;;;;;;8.57;7.77;;;;;;;21.82;57.13;100128.11;124607;1093;116379;-81
2021/06/12 06:57:24;;;;;;;8.30;7.50;;;;;;;21.88;57.57;100137.60;125149;1093;103049;-81
2021/06/12 06:59:51;;;;;;;9.63;8.63;;;;;;;21.93;57.02;100132.69;125294;1093;103154;-80
2021/06/12 07:02:19;;;;;;;9.68;8.18;;;;;;;21.98;56.42;100132.31;124689;1093;115839;-81
2021/06/12 07:05:01;;;;;;;9.38;8.13;;;;;;;22.06;57.28;100124.46;124527;1096;103094;-79
2021/06/12 07:07:29;;;;;;;8.27;7.47;;;;;;;22.15;57.12;100117.42;124383;1095;116373;-79
2021/06/12 07:10:11;;;;;;;9.30;7.80;;;;;;;22.21;55.60;100120.51;124431;1096;103218;-81
2021/06/12 07:13:01;;;;;;;10.38;9.30;;;;;;;22.24;54.95;100116.69;123971;1096;114363;-79
2021/06/12 07:15:28;;;;;;;8.90;7.90;;;;;;;22.35;55.68;100110.43;124263;1099;103220;-78
2021/06/12 07:17:56;;;;;;;12.40;8.58;;;;;;;22.44;55.96;100109.69;123823;1096;103327;-77
2021/06/12 07:20:24;;;;;;;7.90;7.10;;;;;;;22.52;56.39;100104.50;123802;1096;116590;-77
2021/06/12 07:22:51;;;;;;;8.75;7.95;;;;;;;22.66;55.01;100108.81;124108;1096;103276;-78
2021/06/12 07:25:19;;;;;;;10.47;9.03;;;;;;;22.81;55.30;100108.55;123923;1100;115805;-78
2021/06/12 07:27:47;;;;;;;11.47;8.10;;;;;;;22.95;54.61;100101.95;124540;1096;103163;-79
2021/06/12 07:30:15;;;;;;;12.88;9.13;;;;;;;22.91;53.73;100093.20;124327;1096;115582;-77
2021/06/12 07:32:43;;;;;;;8.70;7.58;;;;;;;22.95;54.15;100094.70;124953;1096;103250;-77
2021/06/12 07:35:11;;;;;;;11.13;8.83;;;;;;;23.03;53.55;100094.03;124561;1096;103056;-79
2021/06/12 07:37:39;;;;;;;12.45;8.10;;;;;;;23.07;52.80;100091.92;124860;1096;116096;-78
2021/06/12 07:40:08;;;;;;;10.00;7.30;;;;;;;23.27;53.14;100084.84;124533;1095;103245;-80
2021/06/12 07:42:36;;;;;;;12.07;8.97;;;;;;;23.42;52.13;100088.98;124711;1093;116127;-78
2021/06/12 07:45:04;;;;;;;9.43;7.95;;;;;;;23.46;51.15;100078.69;124901;1092;103005;-79
2021/06/12 07:47:46;;;;;;;8.60;7.13;;;;;;;23.47;51.44;100081.30;124677;1096;103111;-78
2021/06/12 07:50:14;;;;;;;10.00;7.73;;;;;;;23.49;51.82;100083.88;124881;1096;115655;-77
2021/06/12 07:52:48;;;;;;;10.27;7.90;;;;;;;23.46;51.57;100082.28;124657;1093;103581;-79
2021/06/12 07:55:16;;;;;;;12.97;9.03;;;;;;;23.50;51.54;100080.17;124634;1092;116286;-79
2021/06/12 07:57:58;;;;;;;10.37;7.67;;;;;;;23.58;51.86;100080.38;124741;1093;102997;-79
2021/06/12 08:00:27;;;;;;;10.58;6.93;;;;;;;23.70;52.15;100073.86;124576;1092;115090;-79
2021/06/12 08:03:08;;;;;;;8.55;7.75;;;;;;;23.83;51.40;100073.66;124725;1093;103020;-79
2021/06/12 08:05:36;;;;;;;8.10;6.50;;;;;;;24.04;50.44;100064.63;124690;1093;103345;-79
2021/06/12 08:08:04;;;;;;;5.97;5.10;;;;;;;24.19;49.24;100066.00;124469;1093;115962;-78
2021/06/12 08:10:32;;;;;;;10.00;5.80;;;;;;;24.26;48.62;100059.98;124773;1093;103016;-79
2021/06/12 08:13:00;;;;;;;5.88;5.30;;;;;;;24.23;47.49;100066.56;125003;1093;116125;-78
2021/06/12 08:15:28;;;;;;;8.13;5.27;;;;;;;24.20;48.51;100055.97;124644;1093;103101;-80
2021/06/12 08:17:57;;;;;;;5.93;5.33;;;;;;;24.20;48.50;100056.84;124863;1092;103470;-79
2021/06/12 08:20:29;;;;;;;5.83;4.67;;;;;;;24.29;47.67;100057.86;124980;1092;113970;-79
2021/06/12 08:23:01;;;;;;;4.58;3.65;;;;;;;24.42;47.06;100054.03;124743;1093;103121;-77
2021/06/12 08:25:42;;;;;;;8.27;5.60;;;;;;;24.48;47.09;100053.48;124473;1096;115127;-77
2021/06/12 08:28:24;;;;;;;4.80;4.17;;;;;;;24.52;45.84;100057.64;124246;1096;103252;-79
2021/06/12 08:30:52;;;;;;;24.55;21.20;;;;;;;24.56;46.42;100047.35;123869;1096;115972;-79
2021/06/12 08:33:20;;;;;;;6.60;6.00;;;;;;;24.69;46.38;100054.28;124665;1093;103169;-76
2021/06/12 08:35:48;;;;;;;5.23;4.75;;;;;;;24.89;46.55;100039.84;124513;1093;103547;-79
2021/06/12 08:38:15;;;;;;;5.50;4.28;;;;;;;24.99;45.43;100038.84;124432;1093;117458;-77
2021/06/12 08:40:43;;;;;;;4.10;3.75;;;;;;;25.10;43.70;100036.96;124685;1092;103028;-78
2021/06/12 08:43:27;;;;;;;4.48;3.60;;;;;;;25.19;44.17;100039.70;124578;1093;103835;-78
2021/06/12 08:46:11;;;;;;;6.97;4.97;;;;;;;25.27;44.02;100035.38;124784;1093;113881;-75
2021/06/12 08:48:40;;;;;;;9.63;3.77;;;;;;;25.33;45.57;100037.54;124882;1092;102971;-77
2021/06/12 08:51:09;;;;;;;5.80;4.70;;;;;;;25.41;44.32;100034.98;124449;1092;115788;-78
2021/06/12 08:53:36;;;;;;;6.18;4.38;;;;;;;25.42;44.48;100038.55;124574;1093;103240;-78
2021/06/12 08:56:18;;;;;;;5.03;4.43;;;;;;;25.41;44.29;100040.42;124621;1093;117497;-79
2021/06/12 08:58:59;;;;;;;4.97;4.10;;;;;;;25.36;43.12;100035.43;124147;1096;103023;-80
2021/06/12 09:01:26;;;;;;;5.43;4.93;;;;;;;25.32;43.04;100035.81;124457;1096;103547;-77
2021/06/12 09:03:54;;;;;;;4.10;3.70;;;;;;;25.23;43.46;100036.68;124394;1095;115692;-78
2021/06/12 09:06:22;;;;;;;4.50;4.10;;;;;;;25.15;43.19;100032.83;124573;1095;103256;-78
2021/06/12 09:08:57;;;;;;;5.88;4.40;;;;;;;25.07;43.85;100018.18;124552;1095;115461;-80
2021/06/12 09:11:34;;;;;;;5.70;4.67;;;;;;;25.18;43.03;100034.41;124522;1093;102989;-79
2021/06/12 09:14:02;;;;;;;4.73;4.28;;;;;;;25.23;43.62;100025.78;124627;1093;116682;-77
2021/06/12 09:16:37;;;;;;;5.25;4.75;;;;;;;25.46;43.65;100027.22;124644;1093;103157;-78
2021/06/12 09:19:17;;;;;;;8.55;4.43;;;;;;;25.76;42.42;100017.09;124739;1093;103004;-77
2021/06/12 09:21:47;;;;;;;4.63;3.80;;;;;;;26.05;42.98;100015.32;124279;1093;116680;-77
2021/06/12 09:24:38;;;;;;;10.28;8.88;;;;;;;26.12;41.87;100024.61;125168;1092;103098;-81
2021/06/12 09:27:12;;;;;;;4.10;3.70;;;;;;;26.18;41.84;100013.95;124396;1093;115864;-77
2021/06/12 09:29:41;;;;;;;5.33;3.93;;;;;;;26.33;40.36;100007.98;124590;1092;103000;-76
2021/06/12 09:32:16;;;;;;;5.60;3.70;;;;;;;26.56;40.94;100013.02;124497;1093;116106;-77
2021/06/12 09:34:48;;;;;;;7.08;3.90;;;;;;;26.68;40.75;100012.66;124724;1093;103478;-77
2021/06/12 09:37:21;;;;;;;4.17;3.73;;;;;;;26.86;40.08;100007.22;125692;1093;103006;-78
2021/06/12 09:40:08;;;;;;;7.00;4.73;;;;;;;27.14;39.61;99995.36;124521;1093;115702;-77
2021/06/12 09:42:49;;;;;;;5.90;5.33;;;;;;;27.37;38.99;99990.25;124917;1092;103060;-79
2021/06/12 09:45:40;;;;;;;4.88;4.40;;;;;;;27.47;39.49;99993.75;124503;1093;114338;-77
2021/06/12 09:48:18;;;;;;;4.48;4.08;;;;;;;27.76;38.95;99992.55;124749;1093;102986;-79
2021/06/12 09:50:47;;;;;;;5.60;4.10;;;;;;;28.19;38.26;99985.27;124514;1092;115639;-76
2021/06/12 09:53:17;;;;;;;4.93;4.25;;;;;;;28.00;38.30;99988.23;124625;1093;103071;-77
2021/06/12 09:55:45;;;;;;;5.20;4.33;;;;;;;27.69;38.37;99983.28;124433;1093;115782;-76
2021/06/12 09:58:14;;;;;;;5.65;4.83;;;;;;;27.42;39.32;99978.82;124564;1093;103011;-76
2021/06/12 10:00:47;;;;;;;5.77;4.00;;;;;;;27.28;39.94;99974.77;124454;1092;102998;-76
2021/06/12 10:03:21;;;;;;;5.03;4.53;;;;;;;27.06;40.47;99970.66;125211;1093;114692;-76
2021/06/12 10:05:50;;;;;;;5.08;4.50;;;;;;;27.39;40.58;99971.83;124575;1092;102889;-77
2021/06/12 10:08:18;;;;;;;5.30;4.63;;;;;;;28.25;38.32;99969.20;125142;1093;115654;-77
2021/06/12 10:10:50;;;;;;;9.90;4.43;;;;;;;28.87;37.55;99955.16;124322;1093;103163;-76
2021/06/12 10:13:19;;;;;;;8.35;4.88;;;;;;;29.31;37.18;99956.68;124574;1092;103095;-76
2021/06/12 10:15:47;;;;;;;11.30;9.87;;;;;;;29.90;34.87;99948.17;124430;1093;115368;-78
2021/06/12 10:18:21;;;;;;;4.18;3.83;;;;;;;30.22;33.75;99946.31;124649;1093;103100;-77
2021/06/12 10:20:49;;;;;;;4.90;2.75;;;;;;;29.84;35.02;99941.47;124644;1092;116300;-77
2021/06/12 10:23:17;;;;;;;4.90;4.00;;;;;;;29.71;35.03;99934.81;124438;1093;103132;-77
2021/06/12 10:25:45;;;;;;;3.30;2.67;;;;;;;30.19;33.74;99928.29;124487;1093;115648;-78
2021/06/12 10:28:15;;;;;;;3.20;2.73;;;;;;;30.01;34.53;99931.28;124516;1093;103099;-76
2021/06/12 10:30:44;;;;;;;4.30;2.93;;;;;;;29.73;34.12;99924.53;124837;1091;103364;-79
2021/06/12 10:33:18;;;;;;;3.68;3.35;;;;;;;29.19;34.03;99928.72;124258;1093;115277;-79
2021/06/12 10:35:45;;;;;;;7.00;4.17;;;;;;;28.81;36.09;99918.30;124457;1093;103396;-77
2021/06/12 10:38:17;;;;;;;3.65;3.10;;;;;;;28.60;35.83;99917.91;124697;1091;115495;-77
2021/06/12 10:40:45;;;;;;;3.73;2.90;;;;;;;28.32;36.33;99919.09;124465;1092;102984;-76
2021/06/12 10:43:25;;;;;;;4.27;2.87;;;;;;;28.15;35.83;99920.04;124576;1092;102986;-77
2021/06/12 10:46:05;;;;;;;3.30;2.80;;;;;;;27.89;36.16;99920.11;124412;1093;114935;-75
2021/06/12 10:48:50;;;;;;;3.10;2.75;;;;;;;27.77;36.88;99914.92;124424;1093;103013;-78
2021/06/12 10:51:37;;;;;;;3.88;3.03;;;;;;;27.89;37.33;99906.42;124805;1092;115603;-75
2021/06/12 10:54:20;;;;;;;5.00;3.33;;;;;;;27.93;37.25;99903.17;124378;1093;102968;-77
2021/06/12 10:56:59;;;;;;;4.90;2.83;;;;;;;28.11;36.87;99902.23;124401;1093;115066;-77
2021/06/12 10:59:33;;;;;;;9.00;3.20;;;;;;;28.66;37.51;99893.46;125139;1093;102930;-76
2021/06/12 11:02:29;;;;;;;3.53;3.23;;;;;;;28.82;36.77;99889.86;124519;1092;115851;-77
2021/06/12 11:05:04;;;;;;;4.00;3.20;;;;;;;28.65;37.38;99880.78;124495;1093;103113;-79
2021/06/12 11:07:41;;;;;;;3.80;2.97;;;;;;;28.58;37.38;99873.38;124277;1093;103135;-76
2021/06/12 11:10:11;;;;;;;4.73;3.20;;;;;;;28.52;37.69;99863.96;124697;1093;115627;-77
2021/06/12 11:12:39;;;;;;;4.20;3.30;;;;;;;28.57;38.16;99849.77;124502;1093;103124;-76
2021/06/12 11:15:21;;;;;;;4.03;3.63;;;;;;;28.53;38.00;99841.88;124289;1093;115614;-77
2021/06/12 11:18:15;;;;;;;4.33;3.50;;;;;;;28.65;37.98;99841.58;124402;1092;103230;-78
2021/06/12 11:21:00;;;;;;;4.90;4.15;;;;;;;28.84;37.79;99830.27;124539;1092;114852;-78
2021/06/12 11:23:58;;;;;;;3.67;3.13;;;;;;;28.78;37.34;99825.47;124519;1093;103041;-77
2021/06/12 11:26:26;;;;;;;4.70;3.50;;;;;;;28.71;37.86;99823.58;124272;1093;115868;-78